Aurora, IL (60502)

9:45 PM CST on December 22, 2014 (GMT -0600)
Stonehaven | Change Station
CLOSE
Current Station
Personal Weather Station
Location: Aurora, IL
Elevation: 699 ft
Nearby Weather Stations
Active Advisory: Special Statement

Elev 699 ft 41.74 °N, 88.21 °W | Updated 8 minutes ago

Rain
Rain
41.4 °F
Feels Like 39 °F
N
3.7
Wind Variable Wind from ESE

Today
High -- | Low -- °F
--% Chance of Precip.
Yesterday
High -- | Low -- °F
Precip. -- in
7:17 AM 4:25 PM
New Moon, 2% visible
Pressure 29.64 in
Visibility 3.0 miles
Clouds Overcast 700 ft
Windchill 39 °F
Dew Point 41 °F
Humidity 97%
Rainfall 0.45 in
Snow Depth Not available.
UV 0 out of 12
Pollen .10 out of 12
Air Quality Not available.
Flu Activity Not available.
METAR KDPA 230252Z 13012KT 3SM -RA BR OVC007 06/04 A2962 RMK AO2 CIG 006V010 SLP035 P0003 60011 T00560044 58006

More Conditions Fewer Conditions

Pressure 29.64 in
Visibility 3.0 miles
Clouds Overcast 700 ft
Windchill 39 °F
Dew Point 41 °F
Humidity 97%
Rainfall 0.45 in
Snow Depth Not available.
UV 0 out of 12
Pollen .10 out of 12
Air Quality Not available.
Flu Activity Not available.
METAR KDPA 230252Z 13012KT 3SM -RA BR OVC007 06/04 A2962 RMK AO2 CIG 006V010 SLP035 P0003 60011 T00560044 58006

More Conditions Fewer Conditions

10-Day Weather Forecast

Almanac

Astronomy

Dec. 22, 2014 Rise Set
Actual Time
Civil Twilight
Nautical Twilight
Astronomical Twilight
Moon
Length of Visible Light
Length of Day
Tomorrow will be .
, % of the Moon is Illuminated

Today's Extremes

State Highs State Lows

Community

WunderPhotos

Upload Photos

1,779,764 photos uploaded!

WunderBlogs® & News

Nearby

Air Quality

  Air Quality AQ Index Pollutant
Not available.

Snow Depth

Station Depth Elevation

Earthquake Activity

City Distance Mag. Time & Date
Minimum magnitude displayed is 2.5.

Coastal Water Temperatures

Place Temperature

Nearby Weather Stations